createdAt,value
2018-11-26T00:00:50.348Z,2.31
2018-11-26T00:02:50.378Z,2.32
2018-11-26T00:04:50.625Z,2.30
2018-11-26T00:06:49.771Z,2.30
2018-11-26T00:08:49.715Z,2.28
2018-11-26T00:10:49.753Z,2.28
2018-11-26T00:12:50.302Z,2.39
2018-11-26T00:14:50.285Z,2.38
2018-11-26T00:16:50.543Z,2.36
2018-11-26T00:18:50.436Z,2.39
2018-11-26T00:20:50.444Z,2.47
2018-11-26T00:22:50.443Z,2.57
2018-11-26T00:24:50.380Z,2.61
2018-11-26T00:26:50.536Z,2.62
2018-11-26T00:28:50.498Z,2.67
2018-11-26T00:30:50.442Z,2.70
2018-11-26T00:32:50.582Z,2.70
2018-11-26T00:34:49.836Z,2.73
2018-11-26T00:36:50.048Z,2.73
2018-11-26T00:38:50.035Z,2.65
2018-11-26T00:40:50.065Z,2.63
2018-11-26T00:42:50.038Z,2.63
2018-11-26T00:44:50.031Z,2.69
2018-11-26T00:46:50.153Z,2.69
2018-11-26T00:48:50.117Z,2.59
2018-11-26T00:50:50.090Z,2.57
2018-11-26T00:52:50.092Z,2.55
2018-11-26T00:54:50.095Z,2.57
2018-11-26T00:56:50.249Z,2.58
2018-11-26T00:58:50.187Z,2.63
2018-11-26T01:00:50.163Z,2.64
2018-11-26T01:02:50.130Z,2.68
2018-11-26T01:04:50.565Z,2.72
2018-11-26T01:06:49.825Z,2.80
2018-11-26T01:08:49.894Z,2.81
2018-11-26T01:10:50.066Z,2.84
2018-11-26T01:12:50.095Z,2.85
2018-11-26T01:14:50.020Z,2.87
2018-11-26T01:16:50.272Z,2.88
2018-11-26T01:18:50.320Z,2.90
2018-11-26T01:20:50.349Z,2.91
2018-11-26T01:22:50.258Z,2.91
2018-11-26T01:24:50.243Z,2.92
2018-11-26T01:26:50.496Z,2.97
2018-11-26T01:28:50.443Z,3.01
2018-11-26T01:30:50.476Z,3.01
2018-11-26T01:32:50.517Z,3.04
2018-11-26T01:34:49.896Z,3.05
2018-11-26T01:36:50.136Z,3.06
2018-11-26T01:38:50.135Z,3.08
2018-11-26T01:40:50.222Z,3.08
2018-11-26T01:42:50.523Z,3.09
2018-11-26T01:44:50.493Z,3.10
2018-11-26T01:46:49.744Z,3.13
2018-11-26T01:48:49.760Z,3.15
2018-11-26T01:50:49.818Z,3.16
2018-11-26T01:52:49.863Z,3.19
2018-11-26T01:54:49.853Z,3.19
2018-11-26T01:56:50.055Z,3.19
2018-11-26T01:58:50.015Z,3.21
2018-11-26T02:00:50.094Z,3.24
2018-11-26T02:02:50.068Z,3.25
2018-11-26T02:04:50.316Z,3.26
2018-11-26T02:06:50.514Z,3.28
2018-11-26T02:08:50.587Z,3.29
2018-11-26T02:10:50.587Z,3.29
2018-11-26T02:12:50.831Z,3.30
2018-11-26T02:14:49.900Z,3.29
2018-11-26T02:16:50.219Z,3.26
2018-11-26T02:18:50.255Z,3.25
2018-11-26T02:20:50.361Z,3.24
2018-11-26T02:22:50.442Z,3.22
2018-11-26T02:24:50.549Z,3.20
2018-11-26T02:26:49.739Z,3.20
2018-11-26T02:28:49.849Z,3.19
2018-11-26T02:30:49.983Z,3.18
2018-11-26T02:32:50.022Z,3.18
2018-11-26T02:34:50.563Z,3.17
2018-11-26T02:36:49.807Z,3.18
2018-11-26T02:38:49.867Z,3.18
2018-11-26T02:40:49.782Z,3.18
2018-11-26T02:42:49.889Z,3.18
2018-11-26T02:44:49.970Z,3.18
2018-11-26T02:46:50.184Z,3.19
2018-11-26T02:48:50.188Z,3.20
2018-11-26T02:50:50.190Z,3.20
2018-11-26T02:52:50.188Z,3.19
2018-11-26T02:54:50.177Z,3.18
2018-11-26T02:56:50.357Z,3.17
2018-11-26T02:58:50.407Z,3.16
2018-11-26T03:00:50.408Z,3.16
2018-11-26T03:02:50.396Z,3.17
2018-11-26T03:04:49.923Z,3.16
2018-11-26T03:06:50.020Z,3.17
2018-11-26T03:08:50.024Z,3.18
2018-11-26T03:10:49.966Z,3.18
2018-11-26T03:12:50.084Z,3.22
2018-11-26T03:14:50.005Z,3.23
2018-11-26T03:16:50.202Z,3.24
2018-11-26T03:18:50.176Z,3.25
2018-11-26T03:20:50.177Z,3.26
2018-11-26T03:22:50.180Z,3.26
2018-11-26T03:24:50.200Z,3.26
2018-11-26T03:26:50.352Z,3.24
2018-11-26T03:28:50.313Z,3.22
2018-11-26T03:30:50.317Z,3.22
2018-11-26T03:32:50.406Z,3.22
2018-11-26T03:34:50.684Z,3.21
2018-11-26T03:36:49.931Z,3.19
2018-11-26T03:38:49.912Z,3.18
2018-11-26T03:40:49.863Z,3.14
2018-11-26T03:42:49.904Z,3.13
2018-11-26T03:44:49.899Z,3.10
2018-11-26T03:46:50.162Z,3.09
2018-11-26T03:48:50.152Z,3.09
2018-11-26T03:50:50.194Z,3.08
2018-11-26T03:52:50.168Z,3.07
2018-11-26T03:54:50.270Z,3.04
2018-11-26T03:56:50.354Z,3.02
2018-11-26T03:58:50.331Z,3.01
2018-11-26T04:00:50.390Z,2.99
2018-11-26T04:02:50.370Z,2.98
2018-11-26T04:04:50.698Z,2.96
2018-11-26T04:06:49.876Z,2.95
2018-11-26T04:08:49.998Z,2.93
2018-11-26T04:10:49.972Z,2.93
2018-11-26T04:12:49.969Z,2.93
2018-11-26T04:14:49.952Z,2.93
2018-11-26T04:16:50.036Z,2.92
2018-11-26T04:18:50.025Z,2.93
2018-11-26T04:20:50.053Z,2.95
2018-11-26T04:22:50.103Z,2.97
2018-11-26T04:24:50.070Z,2.98
2018-11-26T04:26:50.358Z,2.99
2018-11-26T04:28:50.333Z,3.01
2018-11-26T04:30:50.267Z,3.02
2018-11-26T04:32:50.277Z,3.06
2018-11-26T04:34:49.710Z,3.08
2018-11-26T04:36:49.892Z,3.11
2018-11-26T04:38:49.890Z,3.12
2018-11-26T04:40:49.870Z,3.15
2018-11-26T04:42:49.969Z,3.16
2018-11-26T04:44:49.974Z,3.19
2018-11-26T04:46:50.124Z,3.20
2018-11-26T04:48:50.146Z,3.21
2018-11-26T04:50:50.138Z,3.22
2018-11-26T04:52:50.165Z,3.24
2018-11-26T04:54:50.145Z,3.27
2018-11-26T04:56:50.451Z,3.28
2018-11-26T04:58:50.409Z,3.29
2018-11-26T05:00:50.358Z,3.30
2018-11-26T05:02:50.421Z,3.30
2018-11-26T05:04:50.640Z,3.33
2018-11-26T05:06:49.832Z,3.33
2018-11-26T05:08:49.785Z,3.35
2018-11-26T05:10:49.754Z,3.36
2018-11-26T05:12:49.968Z,3.36
2018-11-26T05:14:49.969Z,3.36
2018-11-26T05:16:50.119Z,3.35
2018-11-26T05:18:50.209Z,3.35
2018-11-26T05:20:50.161Z,3.34
2018-11-26T05:22:50.098Z,3.33
2018-11-26T05:24:50.009Z,3.33
2018-11-26T05:26:49.900Z,3.33
2018-11-26T05:28:49.989Z,3.32
2018-11-26T05:30:49.977Z,3.32
2018-11-26T05:32:49.994Z,3.31
2018-11-26T05:34:50.317Z,3.31
2018-11-26T05:36:50.399Z,3.30
2018-11-26T05:38:50.413Z,3.29
2018-11-26T05:40:50.342Z,3.27
2018-11-26T05:42:50.415Z,3.26
2018-11-26T05:44:50.397Z,3.27
2018-11-26T05:46:50.581Z,3.29
2018-11-26T05:48:50.625Z,3.32
2018-11-26T05:50:50.584Z,3.33
2018-11-26T05:52:50.571Z,3.35
2018-11-26T05:54:50.675Z,3.37
2018-11-26T05:56:49.984Z,3.37
2018-11-26T05:58:49.981Z,3.39
2018-11-26T06:00:49.943Z,3.39
2018-11-26T06:02:49.991Z,3.41
2018-11-26T06:04:50.303Z,3.41
2018-11-26T06:06:50.510Z,3.40
2018-11-26T06:08:50.512Z,3.39
2018-11-26T06:10:50.492Z,3.39
2018-11-26T06:12:50.495Z,3.38
2018-11-26T06:14:50.544Z,3.37
2018-11-26T06:16:54.113Z,3.37
2018-11-26T06:18:50.162Z,3.37
2018-11-26T06:20:50.194Z,3.34
2018-11-26T06:22:50.198Z,3.34
2018-11-26T06:24:50.214Z,3.36
2018-11-26T06:26:50.369Z,3.36
2018-11-26T06:28:50.303Z,3.33
2018-11-26T06:30:50.374Z,3.33
2018-11-26T06:32:50.377Z,3.31
2018-11-26T06:34:50.588Z,3.31
2018-11-26T06:36:50.355Z,3.31
2018-11-26T06:38:50.297Z,3.31
2018-11-26T06:40:50.274Z,3.31
2018-11-26T06:42:50.272Z,3.31
2018-11-26T06:44:50.216Z,3.32
2018-11-26T06:46:50.397Z,3.32
2018-11-26T06:48:50.443Z,3.32
2018-11-26T06:50:50.405Z,3.35
2018-11-26T06:52:50.497Z,3.37
2018-11-26T06:54:50.548Z,3.38
2018-11-26T06:56:50.690Z,3.40
2018-11-26T06:58:49.727Z,3.41
2018-11-26T07:00:49.715Z,3.41
2018-11-26T07:02:49.755Z,3.41
2018-11-26T07:04:50.288Z,3.42
2018-11-26T07:06:50.557Z,3.47
2018-11-26T07:08:50.531Z,3.48
2018-11-26T07:10:50.556Z,3.48
2018-11-26T07:12:50.515Z,3.48
2018-11-26T07:14:50.462Z,3.59
2018-11-26T07:16:50.693Z,3.65
2018-11-26T07:18:49.721Z,3.78
2018-11-26T07:20:49.938Z,3.84
2018-11-26T07:22:49.994Z,3.91
2018-11-26T07:24:50.004Z,4.00
2018-11-26T07:26:50.184Z,4.03
2018-11-26T07:28:50.095Z,4.03
2018-11-26T07:30:50.030Z,4.01
2018-11-26T07:32:50.003Z,3.98
2018-11-26T07:34:50.278Z,3.98
2018-11-26T07:36:50.560Z,4.00
2018-11-26T07:38:50.504Z,4.00
2018-11-26T07:40:50.526Z,4.01
2018-11-26T07:42:50.473Z,4.04
2018-11-26T07:44:50.445Z,4.07
2018-11-26T07:46:50.710Z,4.09
2018-11-26T07:48:49.697Z,4.09
2018-11-26T07:50:49.886Z,4.12
2018-11-26T07:52:50.024Z,4.13
2018-11-26T07:54:50.015Z,4.14
2018-11-26T07:56:50.229Z,4.16
2018-11-26T07:58:50.240Z,4.15
2018-11-26T08:00:50.262Z,4.15
2018-11-26T08:02:50.250Z,4.18
2018-11-26T08:04:50.501Z,4.18
2018-11-26T08:06:49.803Z,4.18
2018-11-26T08:08:49.768Z,4.17
2018-11-26T08:10:49.756Z,4.17
2018-11-26T08:12:49.833Z,4.15
2018-11-26T08:14:49.977Z,4.11
2018-11-26T08:16:50.200Z,4.10
2018-11-26T08:18:50.161Z,4.09
2018-11-26T08:20:50.166Z,4.08
2018-11-26T08:22:50.263Z,4.09
2018-11-26T08:24:50.332Z,4.11
2018-11-26T08:26:50.490Z,4.12
2018-11-26T08:28:50.504Z,4.12
2018-11-26T08:30:50.558Z,4.11
2018-11-26T08:32:50.502Z,4.13
2018-11-26T08:34:49.955Z,4.16
2018-11-26T08:36:50.261Z,4.18
2018-11-26T08:38:50.272Z,4.24
2018-11-26T08:40:49.989Z,4.24
2018-11-26T08:42:50.017Z,4.31
2018-11-26T08:44:50.028Z,4.34
2018-11-26T08:46:50.245Z,4.42
2018-11-26T08:48:50.140Z,4.48
2018-11-26T08:50:50.110Z,4.51
2018-11-26T08:52:50.129Z,4.57
2018-11-26T08:54:50.187Z,4.60
2018-11-26T08:56:50.269Z,4.69
2018-11-26T08:58:50.236Z,4.74
2018-11-26T09:00:50.183Z,4.80
2018-11-26T09:02:50.336Z,4.87
2018-11-26T09:04:50.502Z,4.92
2018-11-26T09:06:49.698Z,4.99
2018-11-26T09:08:49.718Z,5.04
2018-11-26T09:10:50.701Z,5.19
2018-11-26T09:12:49.710Z,5.24
2018-11-26T09:14:49.796Z,5.34
2018-11-26T09:16:49.944Z,5.36
2018-11-26T09:18:49.928Z,5.43
2018-11-26T09:20:49.942Z,5.46
2018-11-26T09:22:49.922Z,5.51
2018-11-26T09:24:49.906Z,5.52
2018-11-26T09:26:50.041Z,5.55
2018-11-26T09:28:50.071Z,5.62
2018-11-26T09:30:50.013Z,5.66
2018-11-26T09:32:50.002Z,5.70
2018-11-26T09:34:50.347Z,5.74
2018-11-26T09:36:50.517Z,5.72
2018-11-26T09:38:50.589Z,5.75
2018-11-26T09:40:50.415Z,5.77
2018-11-26T09:42:50.341Z,5.77
2018-11-26T09:44:50.422Z,5.77
2018-11-26T09:46:49.793Z,5.77
2018-11-26T09:48:49.722Z,5.78
2018-11-26T09:50:49.819Z,5.82
2018-11-26T09:52:49.789Z,5.82
2018-11-26T09:54:49.821Z,5.81
2018-11-26T09:56:50.116Z,5.79
2018-11-26T09:58:50.142Z,5.77
2018-11-26T10:00:50.164Z,5.76
2018-11-26T10:02:50.086Z,5.78
2018-11-26T10:04:50.325Z,5.86
2018-11-26T10:06:50.532Z,5.87
2018-11-26T10:08:50.554Z,5.93
2018-11-26T10:10:50.639Z,5.94
2018-11-26T10:12:50.653Z,5.92
2018-11-26T10:14:50.647Z,5.91
2018-11-26T10:16:49.905Z,5.91
2018-11-26T10:18:49.879Z,5.91
2018-11-26T10:20:49.839Z,5.92
2018-11-26T10:22:49.912Z,5.92
2018-11-26T10:24:50.545Z,5.93
2018-11-26T10:26:49.716Z,5.94
2018-11-26T10:28:49.771Z,5.99
2018-11-26T10:30:49.782Z,6.07
2018-11-26T10:32:49.820Z,6.11
2018-11-26T10:34:50.240Z,6.20
2018-11-26T10:36:50.532Z,6.28
2018-11-26T10:38:50.540Z,6.30
2018-11-26T10:40:50.471Z,6.31
2018-11-26T10:42:50.563Z,6.39
2018-11-26T10:44:50.519Z,6.39
2018-11-26T10:46:49.834Z,6.49
2018-11-26T10:48:49.846Z,6.53
2018-11-26T10:50:49.877Z,6.55
2018-11-26T10:52:49.998Z,6.59
2018-11-26T10:54:49.980Z,6.59
2018-11-26T10:56:50.156Z,6.68
2018-11-26T10:58:50.165Z,6.72
2018-11-26T11:00:50.171Z,6.74
2018-11-26T11:02:50.210Z,6.73
2018-11-26T11:04:50.666Z,6.73
2018-11-26T11:06:56.143Z,6.74
2018-11-26T11:08:50.185Z,6.80
2018-11-26T11:10:50.161Z,6.81
2018-11-26T11:12:50.070Z,6.84
2018-11-26T11:14:50.047Z,6.87
2018-11-26T11:16:50.364Z,6.90
2018-11-26T11:18:50.362Z,6.92
2018-11-26T11:20:50.364Z,6.93
2018-11-26T11:22:50.330Z,6.88
2018-11-26T11:24:50.282Z,6.89
2018-11-26T11:26:50.442Z,6.85
2018-11-26T11:28:50.458Z,6.83
2018-11-26T11:30:50.544Z,6.81
2018-11-26T11:32:50.530Z,6.83
2018-11-26T11:34:49.719Z,6.85
2018-11-26T11:36:50.164Z,6.86
2018-11-26T11:38:50.129Z,6.87
2018-11-26T11:40:50.088Z,6.83
2018-11-26T11:42:50.062Z,6.75
2018-11-26T11:44:49.991Z,6.70
2018-11-26T11:46:50.133Z,6.64
2018-11-26T11:48:50.168Z,6.57
2018-11-26T11:50:50.252Z,6.57
2018-11-26T11:52:50.351Z,6.59
2018-11-26T11:54:50.373Z,6.66
2018-11-26T11:56:50.579Z,6.69
2018-11-26T11:58:50.590Z,6.77
2018-11-26T12:00:50.521Z,6.79
2018-11-26T12:02:50.454Z,6.82
2018-11-26T12:04:49.935Z,6.83
2018-11-26T12:06:50.016Z,6.82
2018-11-26T12:08:49.944Z,6.71
2018-11-26T12:10:49.876Z,6.65
2018-11-26T12:12:50.014Z,6.58
2018-11-26T12:14:49.980Z,6.58
2018-11-26T12:16:50.284Z,6.54
2018-11-26T12:18:50.221Z,6.51
2018-11-26T12:20:50.210Z,6.51
2018-11-26T12:22:50.223Z,6.54
2018-11-26T12:24:50.206Z,6.54
2018-11-26T12:26:50.370Z,6.53
2018-11-26T12:28:50.371Z,6.53
2018-11-26T12:30:50.357Z,6.51
2018-11-26T12:32:50.384Z,6.48
2018-11-26T12:34:50.555Z,6.42
2018-11-26T12:36:50.600Z,6.38
2018-11-26T12:38:50.558Z,6.38
2018-11-26T12:40:50.501Z,6.41
2018-11-26T12:42:50.516Z,6.42
2018-11-26T12:44:50.556Z,6.42
2018-11-26T12:46:49.721Z,6.42
2018-11-26T12:48:49.741Z,6.43
2018-11-26T12:50:49.769Z,6.42
2018-11-26T12:52:49.822Z,6.42
2018-11-26T12:54:49.853Z,6.42
2018-11-26T12:56:50.151Z,6.44
2018-11-26T12:58:50.138Z,6.38
2018-11-26T13:00:50.165Z,6.41
2018-11-26T13:02:50.051Z,6.41
2018-11-26T13:04:50.341Z,6.41
2018-11-26T13:06:50.539Z,6.41
2018-11-26T13:08:50.456Z,6.41
2018-11-26T13:10:50.496Z,6.41
2018-11-26T13:12:50.484Z,6.43
2018-11-26T13:14:50.467Z,6.45
2018-11-26T13:16:50.695Z,6.44
2018-11-26T13:18:50.665Z,6.40
2018-11-26T13:20:50.682Z,6.38
2018-11-26T13:22:50.549Z,6.38
2018-11-26T13:24:50.482Z,6.38
2018-11-26T13:26:49.708Z,6.35
2018-11-26T13:28:50.666Z,6.32
2018-11-26T13:30:50.664Z,6.31
2018-11-26T13:32:50.665Z,6.31
2018-11-26T13:34:49.879Z,6.31
2018-11-26T13:36:50.117Z,6.31
2018-11-26T13:38:50.007Z,6.26
2018-11-26T13:40:50.093Z,6.25
2018-11-26T13:42:49.984Z,6.22
2018-11-26T13:44:49.950Z,6.21
2018-11-26T13:46:50.004Z,6.23
2018-11-26T13:48:49.920Z,6.21
2018-11-26T13:50:50.038Z,6.15
2018-11-26T13:52:49.989Z,6.13
2018-11-26T13:54:49.924Z,6.13
2018-11-26T13:56:50.107Z,6.10
2018-11-26T13:58:50.030Z,6.10
2018-11-26T14:00:49.950Z,6.09
2018-11-26T14:02:49.946Z,6.04
2018-11-26T14:04:50.279Z,6.00
2018-11-26T14:06:50.410Z,5.97
2018-11-26T14:08:50.347Z,5.96
2018-11-26T14:10:50.321Z,5.97
2018-11-26T14:12:50.191Z,5.95
2018-11-26T14:14:52.054Z,5.94
2018-11-26T14:16:50.227Z,5.91
2018-11-26T14:18:50.126Z,5.90
2018-11-26T14:20:50.022Z,5.87
2018-11-26T14:22:50.027Z,5.86
2018-11-26T14:24:49.978Z,5.84
2018-11-26T14:26:50.261Z,5.82
2018-11-26T14:28:50.237Z,5.75
2018-11-26T14:30:50.219Z,5.73
2018-11-26T14:32:50.214Z,5.69
2018-11-26T14:34:50.493Z,5.67
2018-11-26T14:36:50.541Z,5.62
2018-11-26T14:38:50.457Z,5.58
2018-11-26T14:40:50.412Z,5.53
2018-11-26T14:42:50.421Z,5.50
2018-11-26T14:44:50.483Z,5.46
2018-11-26T14:46:50.604Z,5.42
2018-11-26T14:48:50.549Z,5.39
2018-11-26T14:50:50.618Z,5.44
2018-11-26T14:52:50.651Z,5.45
2018-11-26T14:54:49.696Z,5.43
2018-11-26T14:56:49.896Z,5.37
2018-11-26T14:58:49.871Z,5.32
2018-11-26T15:00:49.909Z,5.30
2018-11-26T15:02:49.893Z,5.27
2018-11-26T15:04:50.210Z,5.19
2018-11-26T15:06:50.427Z,5.17
2018-11-26T15:08:50.339Z,5.15
2018-11-26T15:10:50.275Z,5.13
2018-11-26T15:12:50.259Z,5.12
2018-11-26T15:14:50.182Z,5.10
2018-11-26T15:16:50.311Z,5.05
2018-11-26T15:18:50.369Z,5.05
2018-11-26T15:20:50.288Z,5.04
2018-11-26T15:22:50.302Z,5.01
2018-11-26T15:24:50.242Z,5.03
2018-11-26T15:26:54.080Z,5.02
2018-11-26T15:28:50.043Z,5.00
2018-11-26T15:30:49.960Z,4.97
2018-11-26T15:32:49.929Z,4.96
2018-11-26T15:34:50.247Z,4.95
2018-11-26T15:36:50.374Z,4.90
2018-11-26T15:38:50.355Z,4.90
2018-11-26T15:40:50.471Z,4.88
2018-11-26T15:42:50.626Z,4.88
2018-11-26T15:44:50.693Z,4.86
2018-11-26T15:46:49.843Z,4.86
2018-11-26T15:48:49.894Z,4.86
2018-11-26T15:50:49.958Z,4.84
2018-11-26T15:52:49.903Z,4.84
2018-11-26T15:54:49.894Z,4.84
2018-11-26T15:56:50.008Z,4.82
2018-11-26T15:58:49.997Z,4.80
2018-11-26T16:00:49.967Z,4.77
2018-11-26T16:02:49.978Z,4.76
2018-11-26T16:04:50.192Z,4.76
2018-11-26T16:06:50.302Z,4.75
2018-11-26T16:08:50.293Z,4.76
2018-11-26T16:10:50.215Z,4.77
2018-11-26T16:12:50.193Z,4.75
2018-11-26T16:14:50.172Z,4.74
2018-11-26T16:16:50.342Z,4.73
2018-11-26T16:18:50.382Z,4.72
2018-11-26T16:20:50.362Z,4.70
2018-11-26T16:22:50.402Z,4.69
2018-11-26T16:24:50.512Z,4.69
2018-11-26T16:26:49.827Z,4.66
2018-11-26T16:28:49.837Z,4.65
2018-11-26T16:30:49.845Z,4.64
2018-11-26T16:32:49.901Z,4.63
2018-11-26T16:34:50.239Z,4.62
2018-11-26T16:36:50.375Z,4.61
2018-11-26T16:38:50.353Z,4.59
2018-11-26T16:40:50.387Z,4.55
2018-11-26T16:42:50.368Z,4.54
2018-11-26T16:44:50.438Z,4.52
2018-11-26T16:46:50.573Z,4.49
2018-11-26T16:48:50.512Z,4.48
2018-11-26T16:50:50.575Z,4.47
2018-11-26T16:52:51.948Z,4.46
2018-11-26T16:54:49.912Z,4.44
2018-11-26T16:56:50.091Z,4.43
2018-11-26T16:58:50.016Z,4.43
2018-11-26T17:00:49.966Z,4.43
2018-11-26T17:02:49.931Z,4.43
2018-11-26T17:04:50.153Z,4.41
2018-11-26T17:06:50.325Z,4.40
2018-11-26T17:08:50.318Z,4.38
2018-11-26T17:10:50.362Z,4.37
2018-11-26T17:12:50.317Z,4.35
2018-11-26T17:14:50.337Z,4.33
2018-11-26T17:16:50.494Z,4.32
2018-11-26T17:18:50.418Z,4.31
2018-11-26T17:20:50.434Z,4.30
2018-11-26T17:22:50.367Z,4.30
2018-11-26T17:24:50.292Z,4.30
2018-11-26T17:26:50.489Z,4.29
2018-11-26T17:28:50.420Z,4.29
2018-11-26T17:30:50.388Z,4.28
2018-11-26T17:32:50.361Z,4.27
2018-11-26T17:34:50.549Z,4.25
2018-11-26T17:36:49.720Z,4.24
2018-11-26T17:38:49.833Z,4.24
2018-11-26T17:40:49.829Z,4.23
2018-11-26T17:42:49.862Z,4.23
2018-11-26T17:44:49.858Z,4.21
2018-11-26T17:46:50.055Z,4.21
2018-11-26T17:48:50.010Z,4.20
2018-11-26T17:50:50.033Z,4.20
2018-11-26T17:52:50.046Z,4.19
2018-11-26T17:54:50.030Z,4.18
2018-11-26T17:56:50.120Z,4.16
2018-11-26T17:58:50.117Z,4.14
2018-11-26T18:00:50.037Z,4.14
2018-11-26T18:02:50.044Z,4.11
2018-11-26T18:04:50.398Z,4.10
2018-11-26T18:06:50.557Z,4.09
2018-11-26T18:08:50.587Z,4.06
2018-11-26T18:10:50.501Z,4.06
2018-11-26T18:12:50.535Z,4.06
2018-11-26T18:14:50.548Z,4.05
2018-11-26T18:16:49.712Z,4.05
2018-11-26T18:18:49.703Z,4.04
2018-11-26T18:20:49.725Z,4.02
2018-11-26T18:22:50.668Z,4.01
2018-11-26T18:24:49.786Z,3.98
2018-11-26T18:26:50.045Z,3.97
2018-11-26T18:28:50.057Z,3.95
2018-11-26T18:30:50.014Z,3.92
2018-11-26T18:32:50.074Z,3.90
2018-11-26T18:34:50.368Z,3.89
2018-11-26T18:36:50.482Z,3.87
2018-11-26T18:38:50.504Z,3.85
2018-11-26T18:40:50.520Z,3.85
2018-11-26T18:42:50.525Z,3.85
2018-11-26T18:44:50.601Z,3.84
2018-11-26T18:46:49.851Z,3.84
2018-11-26T18:48:49.983Z,3.82
2018-11-26T18:50:50.020Z,3.82
2018-11-26T18:52:49.948Z,3.80
2018-11-26T18:54:49.919Z,3.78
2018-11-26T18:56:50.146Z,3.76
2018-11-26T18:58:50.121Z,3.75
2018-11-26T19:00:50.152Z,3.74
2018-11-26T19:02:50.608Z,3.73
2018-11-26T19:04:50.005Z,3.72
2018-11-26T19:06:50.141Z,3.71
2018-11-26T19:08:50.251Z,3.70
2018-11-26T19:10:50.226Z,3.67
2018-11-26T19:12:50.331Z,3.67
2018-11-26T19:14:50.341Z,3.66
2018-11-26T19:16:50.443Z,3.65
2018-11-26T19:18:50.447Z,3.63
2018-11-26T19:20:50.428Z,3.61
2018-11-26T19:22:50.424Z,3.60
2018-11-26T19:24:50.407Z,3.59
2018-11-26T19:26:50.734Z,3.59
2018-11-26T19:28:49.874Z,3.59
2018-11-26T19:30:49.963Z,3.60
2018-11-26T19:32:49.963Z,3.58
2018-11-26T19:34:50.215Z,3.57
2018-11-26T19:36:50.436Z,3.56
2018-11-26T19:38:50.471Z,3.55
2018-11-26T19:40:50.439Z,3.53
2018-11-26T19:42:50.785Z,3.55
2018-11-26T19:44:50.159Z,3.55
2018-11-26T19:46:50.516Z,3.54
2018-11-26T19:48:50.529Z,3.52
2018-11-26T19:50:50.777Z,3.52
2018-11-26T19:52:49.931Z,3.53
2018-11-26T19:54:49.960Z,3.52
2018-11-26T19:56:50.121Z,3.51
2018-11-26T19:58:50.051Z,3.51
2018-11-26T20:00:50.087Z,3.51
2018-11-26T20:02:50.052Z,3.52
2018-11-26T20:04:50.298Z,3.51
2018-11-26T20:06:50.491Z,3.51
2018-11-26T20:08:50.523Z,3.51
2018-11-26T20:10:50.435Z,3.50
2018-11-26T20:12:50.417Z,3.49
2018-11-26T20:14:50.411Z,3.49
2018-11-26T20:16:50.525Z,3.48
2018-11-26T20:18:50.600Z,3.46
2018-11-26T20:20:50.588Z,3.45
2018-11-26T20:22:50.623Z,3.45
2018-11-26T20:24:50.631Z,3.44
2018-11-26T20:26:49.868Z,3.43
2018-11-26T20:28:49.943Z,3.43
2018-11-26T20:30:49.952Z,3.43
2018-11-26T20:32:49.870Z,3.44
2018-11-26T20:34:50.325Z,3.42
2018-11-26T20:36:50.549Z,3.43
2018-11-26T20:38:50.582Z,3.43
2018-11-26T20:40:50.618Z,3.44
2018-11-26T20:42:49.768Z,3.44
2018-11-26T20:44:49.878Z,3.45
2018-11-26T20:46:50.181Z,3.45
2018-11-26T20:48:50.176Z,3.45
2018-11-26T20:50:50.171Z,3.41
2018-11-26T20:52:50.145Z,3.41
2018-11-26T20:54:50.184Z,3.41
2018-11-26T20:56:50.330Z,3.39
2018-11-26T20:58:50.321Z,3.38
2018-11-26T21:00:50.265Z,3.37
2018-11-26T21:02:50.260Z,3.37
2018-11-26T21:04:50.563Z,3.38
2018-11-26T21:06:49.767Z,3.37
2018-11-26T21:08:49.815Z,3.37
2018-11-26T21:10:49.824Z,3.38
2018-11-26T21:12:49.842Z,3.38
2018-11-26T21:14:49.882Z,3.38
2018-11-26T21:16:50.178Z,3.37
2018-11-26T21:18:50.161Z,3.37
2018-11-26T21:20:50.169Z,3.37
2018-11-26T21:22:50.155Z,3.39
2018-11-26T21:24:50.204Z,3.40
2018-11-26T21:26:50.326Z,3.40
2018-11-26T21:28:50.375Z,3.41
2018-11-26T21:30:52.594Z,3.41
2018-11-26T21:32:50.666Z,3.40
2018-11-26T21:34:49.973Z,3.40
2018-11-26T21:36:50.281Z,3.40
2018-11-26T21:38:50.288Z,3.41
2018-11-26T21:40:50.333Z,3.41
2018-11-26T21:42:50.371Z,3.44
2018-11-26T21:44:50.296Z,3.44
2018-11-26T21:46:53.758Z,3.44
2018-11-26T21:48:49.806Z,3.44
2018-11-26T21:50:49.787Z,3.44
2018-11-26T21:52:49.813Z,3.45
2018-11-26T21:54:49.816Z,3.45
2018-11-26T21:56:50.058Z,3.44
2018-11-26T21:58:50.011Z,3.44
2018-11-26T22:00:49.998Z,3.43
2018-11-26T22:02:49.982Z,3.42
2018-11-26T22:04:50.277Z,3.41
2018-11-26T22:06:50.408Z,3.42
2018-11-26T22:08:50.385Z,3.41
2018-11-26T22:10:50.305Z,3.42
2018-11-26T22:12:50.451Z,3.42
2018-11-26T22:14:50.396Z,3.42
2018-11-26T22:16:50.565Z,3.42
2018-11-26T22:18:51.453Z,3.42
2018-11-26T22:20:50.376Z,3.43
2018-11-26T22:22:50.436Z,3.43
2018-11-26T22:24:50.481Z,3.44
2018-11-26T22:26:49.673Z,3.45
2018-11-26T22:28:50.658Z,3.46
2018-11-26T22:30:50.688Z,3.46
2018-11-26T22:32:49.730Z,3.46
2018-11-26T22:34:50.104Z,3.46
2018-11-26T22:36:50.316Z,3.44
2018-11-26T22:38:50.324Z,3.45
2018-11-26T22:40:50.301Z,3.45
2018-11-26T22:42:50.267Z,3.45
2018-11-26T22:44:50.278Z,3.46
2018-11-26T22:46:50.405Z,3.46
2018-11-26T22:48:50.447Z,3.47
2018-11-26T22:50:50.447Z,3.47
2018-11-26T22:52:50.469Z,3.47
2018-11-26T22:54:50.507Z,3.47
2018-11-26T22:56:50.639Z,3.45
2018-11-26T22:58:50.580Z,3.44
2018-11-26T23:00:50.710Z,3.43
2018-11-26T23:02:50.673Z,3.41
2018-11-26T23:04:49.929Z,3.41
2018-11-26T23:06:50.033Z,3.39
2018-11-26T23:08:50.004Z,3.39
2018-11-26T23:10:49.906Z,3.39
2018-11-26T23:12:49.868Z,3.38
2018-11-26T23:14:49.852Z,3.37
2018-11-26T23:16:50.158Z,3.37
2018-11-26T23:18:50.151Z,3.35
2018-11-26T23:20:50.053Z,3.33
2018-11-26T23:22:50.015Z,3.32
2018-11-26T23:24:49.948Z,3.30
2018-11-26T23:26:50.127Z,3.28
2018-11-26T23:28:50.076Z,3.26
2018-11-26T23:30:49.996Z,3.26
2018-11-26T23:32:49.994Z,3.26
2018-11-26T23:34:50.329Z,3.23
2018-11-26T23:36:50.438Z,3.23
2018-11-26T23:38:50.517Z,3.22
2018-11-26T23:40:50.546Z,3.22
2018-11-26T23:42:50.520Z,3.20
2018-11-26T23:44:50.512Z,3.19
2018-11-26T23:46:50.553Z,3.18
2018-11-26T23:48:50.576Z,3.17
2018-11-26T23:50:50.657Z,3.17
2018-11-26T23:52:49.745Z,3.15
2018-11-26T23:54:49.913Z,3.14
2018-11-26T23:56:50.042Z,3.13
2018-11-26T23:58:50.069Z,3.11
